sensor_id;sensor_type;location;lat;lon;timestamp;temperature;humidity
36186;DHT22;22228;53.222;7.446;2022-08-21T00:02:01;14.90;99.90
36186;DHT22;22228;53.222;7.446;2022-08-21T00:04:22;14.90;99.90
36186;DHT22;22228;53.222;7.446;2022-08-21T00:06:43;14.90;99.90
36186;DHT22;22228;53.222;7.446;2022-08-21T00:09:07;14.90;99.90
36186;DHT22;22228;53.222;7.446;2022-08-21T00:11:28;14.80;99.90
36186;DHT22;22228;53.222;7.446;2022-08-21T00:13:49;14.90;99.90
36186;DHT22;22228;53.222;7.446;2022-08-21T00:16:09;14.90;99.90
36186;DHT22;22228;53.222;7.446;2022-08-21T00:18:30;14.90;99.90
36186;DHT22;22228;53.222;7.446;2022-08-21T00:20:50;14.80;99.90
36186;DHT22;22228;53.222;7.446;2022-08-21T00:23:11;14.80;99.90
36186;DHT22;22228;53.222;7.446;2022-08-21T00:25:33;14.80;99.90
36186;DHT22;22228;53.222;7.446;2022-08-21T00:27:54;14.80;99.90
36186;DHT22;22228;53.222;7.446;2022-08-21T00:30:16;14.70;99.90
36186;DHT22;22228;53.222;7.446;2022-08-21T00:32:39;14.70;99.90
36186;DHT22;22228;53.222;7.446;2022-08-21T00:34:59;14.70;99.90
36186;DHT22;22228;53.222;7.446;2022-08-21T00:37:20;14.70;99.90
36186;DHT22;22228;53.222;7.446;2022-08-21T00:39:41;14.70;99.90
36186;DHT22;22228;53.222;7.446;2022-08-21T00:42:03;14.70;99.90
36186;DHT22;22228;53.222;7.446;2022-08-21T00:44:24;14.60;99.90
36186;DHT22;22228;53.222;7.446;2022-08-21T00:46:44;14.60;99.90
36186;DHT22;22228;53.222;7.446;2022-08-21T00:49:06;14.60;99.90
36186;DHT22;22228;53.222;7.446;2022-08-21T00:51:32;14.50;99.90
36186;DHT22;22228;53.222;7.446;2022-08-21T00:53:58;14.50;99.90
36186;DHT22;22228;53.222;7.446;2022-08-21T00:56:21;14.40;99.90
36186;DHT22;22228;53.222;7.446;2022-08-21T00:58:44;14.50;99.90
36186;DHT22;22228;53.222;7.446;2022-08-21T01:01:07;14.40;99.90
36186;DHT22;22228;53.222;7.446;2022-08-21T01:03:27;14.40;99.90
36186;DHT22;22228;53.222;7.446;2022-08-21T01:05:48;14.30;99.90
36186;DHT22;22228;53.222;7.446;2022-08-21T01:08:09;14.30;99.90
36186;DHT22;22228;53.222;7.446;2022-08-21T01:10:30;14.20;99.90
36186;DHT22;22228;53.222;7.446;2022-08-21T01:12:51;14.20;99.90
36186;DHT22;22228;53.222;7.446;2022-08-21T01:15:14;14.10;99.90
36186;DHT22;22228;53.222;7.446;2022-08-21T01:17:36;14.10;99.90
36186;DHT22;22228;53.222;7.446;2022-08-21T01:19:57;14.00;99.90
36186;DHT22;22228;53.222;7.446;2022-08-21T01:22:19;14.00;99.90
36186;DHT22;22228;53.222;7.446;2022-08-21T01:24:40;14.00;99.90
36186;DHT22;22228;53.222;7.446;2022-08-21T01:27:00;13.90;99.90
36186;DHT22;22228;53.222;7.446;2022-08-21T01:29:29;13.90;99.90
36186;DHT22;22228;53.222;7.446;2022-08-21T01:31:50;13.90;99.90
36186;DHT22;22228;53.222;7.446;2022-08-21T01:34:10;13.80;99.90
36186;DHT22;22228;53.222;7.446;2022-08-21T01:36:31;13.80;99.90
36186;DHT22;22228;53.222;7.446;2022-08-21T01:38:54;13.80;99.90
36186;DHT22;22228;53.222;7.446;2022-08-21T01:41:15;13.70;99.90
36186;DHT22;22228;53.222;7.446;2022-08-21T01:43:35;13.70;99.90
36186;DHT22;22228;53.222;7.446;2022-08-21T01:45:56;13.80;99.90
36186;DHT22;22228;53.222;7.446;2022-08-21T01:48:17;13.80;99.90
36186;DHT22;22228;53.222;7.446;2022-08-21T01:50:37;13.80;99.90
36186;DHT22;22228;53.222;7.446;2022-08-21T01:52:58;13.70;99.90
36186;DHT22;22228;53.222;7.446;2022-08-21T01:55:22;13.70;99.90
36186;DHT22;22228;53.222;7.446;2022-08-21T01:57:43;13.60;99.90
36186;DHT22;22228;53.222;7.446;2022-08-21T02:00:04;13.60;99.90
36186;DHT22;22228;53.222;7.446;2022-08-21T02:02:31;13.60;99.90
36186;DHT22;22228;53.222;7.446;2022-08-21T02:04:51;13.50;99.90
36186;DHT22;22228;53.222;7.446;2022-08-21T02:07:12;13.60;99.90
36186;DHT22;22228;53.222;7.446;2022-08-21T02:09:32;13.60;99.90
36186;DHT22;22228;53.222;7.446;2022-08-21T02:11:55;13.50;99.90
36186;DHT22;22228;53.222;7.446;2022-08-21T02:14:15;13.50;99.90
36186;DHT22;22228;53.222;7.446;2022-08-21T02:16:36;13.50;99.90
36186;DHT22;22228;53.222;7.446;2022-08-21T02:18:56;13.50;99.90
36186;DHT22;22228;53.222;7.446;2022-08-21T02:21:17;13.50;99.90
36186;DHT22;22228;53.222;7.446;2022-08-21T02:23:38;13.50;99.90
36186;DHT22;22228;53.222;7.446;2022-08-21T02:25:59;13.40;99.90
36186;DHT22;22228;53.222;7.446;2022-08-21T02:28:21;13.30;99.90
36186;DHT22;22228;53.222;7.446;2022-08-21T02:30:43;13.30;99.90
36186;DHT22;22228;53.222;7.446;2022-08-21T02:33:04;13.30;99.90
36186;DHT22;22228;53.222;7.446;2022-08-21T02:35:25;13.20;99.90
36186;DHT22;22228;53.222;7.446;2022-08-21T02:37:48;13.20;99.90
36186;DHT22;22228;53.222;7.446;2022-08-21T02:40:10;13.20;99.90
36186;DHT22;22228;53.222;7.446;2022-08-21T02:42:31;13.20;99.90
36186;DHT22;22228;53.222;7.446;2022-08-21T02:44:52;13.10;99.90
36186;DHT22;22228;53.222;7.446;2022-08-21T02:47:13;13.10;99.90
36186;DHT22;22228;53.222;7.446;2022-08-21T02:49:34;13.10;99.90
36186;DHT22;22228;53.222;7.446;2022-08-21T02:51:54;13.10;99.90
36186;DHT22;22228;53.222;7.446;2022-08-21T02:54:15;13.00;99.90
36186;DHT22;22228;53.222;7.446;2022-08-21T02:56:36;13.00;99.90
36186;DHT22;22228;53.222;7.446;2022-08-21T02:58:56;13.00;99.90
36186;DHT22;22228;53.222;7.446;2022-08-21T03:01:18;13.00;99.90
36186;DHT22;22228;53.222;7.446;2022-08-21T03:03:41;13.00;99.90
36186;DHT22;22228;53.222;7.446;2022-08-21T03:06:02;12.90;99.90
36186;DHT22;22228;53.222;7.446;2022-08-21T03:08:23;12.90;99.90
36186;DHT22;22228;53.222;7.446;2022-08-21T03:10:48;12.90;99.90
36186;DHT22;22228;53.222;7.446;2022-08-21T03:13:10;12.90;99.90
36186;DHT22;22228;53.222;7.446;2022-08-21T03:15:31;12.90;99.90
36186;DHT22;22228;53.222;7.446;2022-08-21T03:17:52;12.90;99.90
36186;DHT22;22228;53.222;7.446;2022-08-21T03:20:14;12.90;99.90
36186;DHT22;22228;53.222;7.446;2022-08-21T03:22:35;12.90;99.90
36186;DHT22;22228;53.222;7.446;2022-08-21T03:24:55;12.90;99.90
36186;DHT22;22228;53.222;7.446;2022-08-21T03:27:16;12.90;99.90
36186;DHT22;22228;53.222;7.446;2022-08-21T03:29:37;12.80;99.90
36186;DHT22;22228;53.222;7.446;2022-08-21T03:31:57;12.80;99.90
36186;DHT22;22228;53.222;7.446;2022-08-21T03:34:20;12.70;99.90
36186;DHT22;22228;53.222;7.446;2022-08-21T03:36:40;12.70;99.90
36186;DHT22;22228;53.222;7.446;2022-08-21T03:39:01;12.60;99.90
36186;DHT22;22228;53.222;7.446;2022-08-21T03:41:21;12.60;99.90
36186;DHT22;22228;53.222;7.446;2022-08-21T03:43:42;12.60;99.90
36186;DHT22;22228;53.222;7.446;2022-08-21T03:46:04;12.60;99.90
36186;DHT22;22228;53.222;7.446;2022-08-21T03:48:25;12.60;99.90
36186;DHT22;22228;53.222;7.446;2022-08-21T03:50:46;12.60;99.90
36186;DHT22;22228;53.222;7.446;2022-08-21T03:53:10;12.60;99.90
36186;DHT22;22228;53.222;7.446;2022-08-21T03:55:30;12.50;99.90
36186;DHT22;22228;53.222;7.446;2022-08-21T03:57:51;12.50;99.90
36186;DHT22;22228;53.222;7.446;2022-08-21T04:00:13;12.60;99.90
36186;DHT22;22228;53.222;7.446;2022-08-21T04:02:34;12.60;99.90
36186;DHT22;22228;53.222;7.446;2022-08-21T04:04:55;12.60;99.90
36186;DHT22;22228;53.222;7.446;2022-08-21T04:07:16;12.60;99.90
36186;DHT22;22228;53.222;7.446;2022-08-21T04:09:37;12.60;99.90
36186;DHT22;22228;53.222;7.446;2022-08-21T04:11:58;12.50;99.90
36186;DHT22;22228;53.222;7.446;2022-08-21T04:14:19;12.50;99.90
36186;DHT22;22228;53.222;7.446;2022-08-21T04:16:41;12.50;99.90
36186;DHT22;22228;53.222;7.446;2022-08-21T04:19:01;12.50;99.90
36186;DHT22;22228;53.222;7.446;2022-08-21T04:21:22;12.50;99.90
36186;DHT22;22228;53.222;7.446;2022-08-21T04:23:44;12.50;99.90
36186;DHT22;22228;53.222;7.446;2022-08-21T04:26:04;12.50;99.90
36186;DHT22;22228;53.222;7.446;2022-08-21T04:28:27;12.50;99.90
36186;DHT22;22228;53.222;7.446;2022-08-21T04:30:47;12.50;99.90
36186;DHT22;22228;53.222;7.446;2022-08-21T04:33:09;12.50;99.90
36186;DHT22;22228;53.222;7.446;2022-08-21T04:35:29;12.50;99.90
36186;DHT22;22228;53.222;7.446;2022-08-21T04:37:50;12.50;99.90
36186;DHT22;22228;53.222;7.446;2022-08-21T04:40:15;12.50;99.90
36186;DHT22;22228;53.222;7.446;2022-08-21T04:42:41;12.50;99.90
36186;DHT22;22228;53.222;7.446;2022-08-21T04:45:03;12.50;99.90
36186;DHT22;22228;53.222;7.446;2022-08-21T04:47:24;12.50;99.90
36186;DHT22;22228;53.222;7.446;2022-08-21T04:49:44;12.50;99.90
36186;DHT22;22228;53.222;7.446;2022-08-21T04:52:05;12.50;99.90
36186;DHT22;22228;53.222;7.446;2022-08-21T04:54:25;12.60;99.90
36186;DHT22;22228;53.222;7.446;2022-08-21T04:56:50;12.60;99.90
36186;DHT22;22228;53.222;7.446;2022-08-21T04:59:15;12.60;99.90
36186;DHT22;22228;53.222;7.446;2022-08-21T05:01:37;12.60;99.90
36186;DHT22;22228;53.222;7.446;2022-08-21T05:03:59;12.70;99.90
36186;DHT22;22228;53.222;7.446;2022-08-21T05:06:21;12.70;99.90
36186;DHT22;22228;53.222;7.446;2022-08-21T05:08:42;12.70;99.90
36186;DHT22;22228;53.222;7.446;2022-08-21T05:11:05;12.70;99.90
36186;DHT22;22228;53.222;7.446;2022-08-21T05:13:27;12.80;99.90
36186;DHT22;22228;53.222;7.446;2022-08-21T05:15:48;12.80;99.90
36186;DHT22;22228;53.222;7.446;2022-08-21T05:18:08;12.80;99.90
36186;DHT22;22228;53.222;7.446;2022-08-21T05:20:29;12.90;99.90
36186;DHT22;22228;53.222;7.446;2022-08-21T05:22:49;12.90;99.90
36186;DHT22;22228;53.222;7.446;2022-08-21T05:25:10;13.00;99.90
36186;DHT22;22228;53.222;7.446;2022-08-21T05:27:31;13.00;99.90
36186;DHT22;22228;53.222;7.446;2022-08-21T05:29:53;13.00;99.90
36186;DHT22;22228;53.222;7.446;2022-08-21T05:32:14;13.10;99.90
36186;DHT22;22228;53.222;7.446;2022-08-21T05:34:34;13.10;99.90
36186;DHT22;22228;53.222;7.446;2022-08-21T05:36:55;13.20;99.90
36186;DHT22;22228;53.222;7.446;2022-08-21T05:39:15;13.30;99.90
36186;DHT22;22228;53.222;7.446;2022-08-21T05:41:36;13.30;99.90
36186;DHT22;22228;53.222;7.446;2022-08-21T05:43:56;13.40;99.90
36186;DHT22;22228;53.222;7.446;2022-08-21T05:46:18;13.50;99.90
36186;DHT22;22228;53.222;7.446;2022-08-21T05:48:39;13.60;99.90
36186;DHT22;22228;53.222;7.446;2022-08-21T05:51:05;13.70;99.90
36186;DHT22;22228;53.222;7.446;2022-08-21T05:53:26;13.70;99.90
36186;DHT22;22228;53.222;7.446;2022-08-21T05:55:47;13.80;99.90
36186;DHT22;22228;53.222;7.446;2022-08-21T05:58:08;13.90;99.90
36186;DHT22;22228;53.222;7.446;2022-08-21T06:00:28;14.00;99.90
36186;DHT22;22228;53.222;7.446;2022-08-21T06:02:50;14.10;99.90
36186;DHT22;22228;53.222;7.446;2022-08-21T06:05:10;14.20;99.90
36186;DHT22;22228;53.222;7.446;2022-08-21T06:07:31;14.30;99.90
36186;DHT22;22228;53.222;7.446;2022-08-21T06:09:51;14.40;99.90
36186;DHT22;22228;53.222;7.446;2022-08-21T06:12:12;14.50;99.90
36186;DHT22;22228;53.222;7.446;2022-08-21T06:14:33;14.60;99.90
36186;DHT22;22228;53.222;7.446;2022-08-21T06:16:54;14.70;99.90
36186;DHT22;22228;53.222;7.446;2022-08-21T06:19:16;14.80;99.90
36186;DHT22;22228;53.222;7.446;2022-08-21T06:21:36;14.90;99.90
36186;DHT22;22228;53.222;7.446;2022-08-21T06:23:57;15.00;99.90
36186;DHT22;22228;53.222;7.446;2022-08-21T06:26:18;15.10;99.90
36186;DHT22;22228;53.222;7.446;2022-08-21T06:28:39;15.20;99.90
36186;DHT22;22228;53.222;7.446;2022-08-21T06:31:00;15.30;99.90
36186;DHT22;22228;53.222;7.446;2022-08-21T06:33:21;15.40;99.90
36186;DHT22;22228;53.222;7.446;2022-08-21T06:35:42;15.50;99.90
36186;DHT22;22228;53.222;7.446;2022-08-21T06:38:03;15.60;99.90
36186;DHT22;22228;53.222;7.446;2022-08-21T06:40:24;15.80;99.90
36186;DHT22;22228;53.222;7.446;2022-08-21T06:42:44;15.90;99.90
36186;DHT22;22228;53.222;7.446;2022-08-21T06:45:05;16.00;99.90
36186;DHT22;22228;53.222;7.446;2022-08-21T06:47:26;16.20;99.90
36186;DHT22;22228;53.222;7.446;2022-08-21T06:49:47;16.30;99.90
36186;DHT22;22228;53.222;7.446;2022-08-21T06:52:10;16.40;99.90
36186;DHT22;22228;53.222;7.446;2022-08-21T06:54:32;16.60;99.90
36186;DHT22;22228;53.222;7.446;2022-08-21T06:56:52;16.70;99.90
36186;DHT22;22228;53.222;7.446;2022-08-21T06:59:13;16.80;99.90
36186;DHT22;22228;53.222;7.446;2022-08-21T07:01:33;17.00;99.90
36186;DHT22;22228;53.222;7.446;2022-08-21T07:03:53;17.10;99.90
36186;DHT22;22228;53.222;7.446;2022-08-21T07:06:14;17.20;99.90
36186;DHT22;22228;53.222;7.446;2022-08-21T07:08:36;17.30;99.90
36186;DHT22;22228;53.222;7.446;2022-08-21T07:10:59;17.40;99.90
36186;DHT22;22228;53.222;7.446;2022-08-21T07:13:19;17.50;99.90
36186;DHT22;22228;53.222;7.446;2022-08-21T07:15:40;17.60;99.90
36186;DHT22;22228;53.222;7.446;2022-08-21T07:18:01;17.80;99.90
36186;DHT22;22228;53.222;7.446;2022-08-21T07:20:21;17.90;99.90
36186;DHT22;22228;53.222;7.446;2022-08-21T07:22:42;18.00;99.90
36186;DHT22;22228;53.222;7.446;2022-08-21T07:25:06;18.10;99.90
36186;DHT22;22228;53.222;7.446;2022-08-21T07:27:27;18.30;99.90
36186;DHT22;22228;53.222;7.446;2022-08-21T07:29:48;18.40;99.90
36186;DHT22;22228;53.222;7.446;2022-08-21T07:32:08;18.50;99.90
36186;DHT22;22228;53.222;7.446;2022-08-21T07:34:29;18.60;99.90
36186;DHT22;22228;53.222;7.446;2022-08-21T07:36:49;18.70;99.90
36186;DHT22;22228;53.222;7.446;2022-08-21T07:39:10;18.80;99.90
36186;DHT22;22228;53.222;7.446;2022-08-21T07:41:33;18.90;99.90
36186;DHT22;22228;53.222;7.446;2022-08-21T07:43:54;19.00;99.90
36186;DHT22;22228;53.222;7.446;2022-08-21T07:46:16;19.10;99.90
36186;DHT22;22228;53.222;7.446;2022-08-21T07:48:37;19.20;99.90
36186;DHT22;22228;53.222;7.446;2022-08-21T07:50:58;19.20;99.90
36186;DHT22;22228;53.222;7.446;2022-08-21T07:53:22;19.20;99.90
36186;DHT22;22228;53.222;7.446;2022-08-21T07:55:43;19.30;99.90
36186;DHT22;22228;53.222;7.446;2022-08-21T07:58:05;19.40;99.90
36186;DHT22;22228;53.222;7.446;2022-08-21T08:00:28;19.50;99.90
36186;DHT22;22228;53.222;7.446;2022-08-21T08:02:52;19.60;99.90
36186;DHT22;22228;53.222;7.446;2022-08-21T08:05:13;19.70;99.90
36186;DHT22;22228;53.222;7.446;2022-08-21T08:07:34;19.80;99.90
36186;DHT22;22228;53.222;7.446;2022-08-21T08:09:54;19.80;99.90
36186;DHT22;22228;53.222;7.446;2022-08-21T08:12:15;19.90;99.90
36186;DHT22;22228;53.222;7.446;2022-08-21T08:14:39;20.00;99.90
36186;DHT22;22228;53.222;7.446;2022-08-21T08:16:59;20.10;99.90
36186;DHT22;22228;53.222;7.446;2022-08-21T08:19:21;20.10;99.90
36186;DHT22;22228;53.222;7.446;2022-08-21T08:21:42;20.20;99.90
36186;DHT22;22228;53.222;7.446;2022-08-21T08:24:03;20.30;99.90
36186;DHT22;22228;53.222;7.446;2022-08-21T08:26:24;20.30;99.90
36186;DHT22;22228;53.222;7.446;2022-08-21T08:28:54;20.40;99.90
36186;DHT22;22228;53.222;7.446;2022-08-21T08:31:15;20.50;99.90
36186;DHT22;22228;53.222;7.446;2022-08-21T08:33:36;20.50;99.90
36186;DHT22;22228;53.222;7.446;2022-08-21T08:35:56;20.60;99.90
36186;DHT22;22228;53.222;7.446;2022-08-21T08:38:19;20.70;99.90
36186;DHT22;22228;53.222;7.446;2022-08-21T08:40:45;20.70;99.90
36186;DHT22;22228;53.222;7.446;2022-08-21T08:43:07;20.80;99.90
36186;DHT22;22228;53.222;7.446;2022-08-21T08:45:30;20.80;99.90
36186;DHT22;22228;53.222;7.446;2022-08-21T08:47:56;20.80;99.90
36186;DHT22;22228;53.222;7.446;2022-08-21T08:50:23;21.00;99.90
36186;DHT22;22228;53.222;7.446;2022-08-21T08:52:48;21.00;99.90
36186;DHT22;22228;53.222;7.446;2022-08-21T08:55:13;21.00;99.90
36186;DHT22;22228;53.222;7.446;2022-08-21T08:57:36;21.10;99.90
36186;DHT22;22228;53.222;7.446;2022-08-21T09:00:00;21.10;99.90
36186;DHT22;22228;53.222;7.446;2022-08-21T09:02:22;21.20;99.90
36186;DHT22;22228;53.222;7.446;2022-08-21T09:04:47;21.20;99.90
36186;DHT22;22228;53.222;7.446;2022-08-21T09:07:15;21.30;99.90
36186;DHT22;22228;53.222;7.446;2022-08-21T09:09:46;21.50;99.90
36186;DHT22;22228;53.222;7.446;2022-08-21T09:12:14;21.50;99.90
36186;DHT22;22228;53.222;7.446;2022-08-21T09:14:47;21.40;99.90
36186;DHT22;22228;53.222;7.446;2022-08-21T09:17:18;21.50;99.90
36186;DHT22;22228;53.222;7.446;2022-08-21T09:19:53;21.50;99.90
36186;DHT22;22228;53.222;7.446;2022-08-21T09:22:22;21.60;99.90
36186;DHT22;22228;53.222;7.446;2022-08-21T09:24:49;21.80;99.90
36186;DHT22;22228;53.222;7.446;2022-08-21T09:27:16;22.00;99.90
36186;DHT22;22228;53.222;7.446;2022-08-21T09:29:39;22.20;99.90
36186;DHT22;22228;53.222;7.446;2022-08-21T09:32:00;22.30;99.90
36186;DHT22;22228;53.222;7.446;2022-08-21T09:34:25;22.40;99.90
36186;DHT22;22228;53.222;7.446;2022-08-21T09:36:49;22.50;99.90
36186;DHT22;22228;53.222;7.446;2022-08-21T09:39:12;22.60;99.90
36186;DHT22;22228;53.222;7.446;2022-08-21T09:41:35;22.50;99.90
36186;DHT22;22228;53.222;7.446;2022-08-21T09:43:56;22.40;99.90
36186;DHT22;22228;53.222;7.446;2022-08-21T09:46:21;22.40;99.90
36186;DHT22;22228;53.222;7.446;2022-08-21T09:48:44;22.50;99.90
36186;DHT22;22228;53.222;7.446;2022-08-21T09:51:06;22.50;99.90
36186;DHT22;22228;53.222;7.446;2022-08-21T09:53:29;22.70;99.90
36186;DHT22;22228;53.222;7.446;2022-08-21T09:55:52;22.80;99.90
36186;DHT22;22228;53.222;7.446;2022-08-21T09:58:33;22.90;99.90
36186;DHT22;22228;53.222;7.446;2022-08-21T10:00:58;23.00;99.90
36186;DHT22;22228;53.222;7.446;2022-08-21T10:03:21;23.20;99.90
36186;DHT22;22228;53.222;7.446;2022-08-21T10:05:52;23.30;99.90
36186;DHT22;22228;53.222;7.446;2022-08-21T10:08:17;23.40;99.90
36186;DHT22;22228;53.222;7.446;2022-08-21T10:10:39;23.50;99.90
36186;DHT22;22228;53.222;7.446;2022-08-21T10:13:04;23.40;99.90
36186;DHT22;22228;53.222;7.446;2022-08-21T10:15:34;23.30;99.90
36186;DHT22;22228;53.222;7.446;2022-08-21T10:18:10;23.40;99.90
36186;DHT22;22228;53.222;7.446;2022-08-21T10:20:37;23.70;99.90
36186;DHT22;22228;53.222;7.446;2022-08-21T10:23:07;23.90;99.90
36186;DHT22;22228;53.222;7.446;2022-08-21T10:25:40;24.20;99.90
36186;DHT22;22228;53.222;7.446;2022-08-21T10:28:07;24.30;99.90
36186;DHT22;22228;53.222;7.446;2022-08-21T10:30:36;24.40;99.90
36186;DHT22;22228;53.222;7.446;2022-08-21T10:33:37;24.40;99.90
36186;DHT22;22228;53.222;7.446;2022-08-21T10:36:09;24.40;99.90
36186;DHT22;22228;53.222;7.446;2022-08-21T10:38:58;24.40;99.90
36186;DHT22;22228;53.222;7.446;2022-08-21T10:41:31;24.50;99.90
36186;DHT22;22228;53.222;7.446;2022-08-21T10:44:02;24.50;99.90
36186;DHT22;22228;53.222;7.446;2022-08-21T10:46:36;24.50;99.90
36186;DHT22;22228;53.222;7.446;2022-08-21T10:49:05;24.40;99.90
36186;DHT22;22228;53.222;7.446;2022-08-21T10:51:32;24.30;99.90
36186;DHT22;22228;53.222;7.446;2022-08-21T10:54:00;24.40;99.90
36186;DHT22;22228;53.222;7.446;2022-08-21T10:56:25;24.70;99.90
36186;DHT22;22228;53.222;7.446;2022-08-21T10:58:57;25.00;99.90
36186;DHT22;22228;53.222;7.446;2022-08-21T11:01:25;25.20;99.90
36186;DHT22;22228;53.222;7.446;2022-08-21T11:03:52;25.30;99.90
36186;DHT22;22228;53.222;7.446;2022-08-21T11:06:16;25.60;99.90
36186;DHT22;22228;53.222;7.446;2022-08-21T11:08:42;25.80;99.90
36186;DHT22;22228;53.222;7.446;2022-08-21T11:11:07;26.20;99.90
36186;DHT22;22228;53.222;7.446;2022-08-21T11:13:37;26.60;99.90
36186;DHT22;22228;53.222;7.446;2022-08-21T11:16:03;26.90;99.90
36186;DHT22;22228;53.222;7.446;2022-08-21T11:18:30;26.90;99.90
36186;DHT22;22228;53.222;7.446;2022-08-21T11:20:59;27.10;99.90
36186;DHT22;22228;53.222;7.446;2022-08-21T11:23:25;27.10;99.90
36186;DHT22;22228;53.222;7.446;2022-08-21T11:25:50;27.10;99.90
36186;DHT22;22228;53.222;7.446;2022-08-21T11:28:16;27.50;99.90
36186;DHT22;22228;53.222;7.446;2022-08-21T11:30:48;27.30;99.90
36186;DHT22;22228;53.222;7.446;2022-08-21T11:33:25;26.90;99.90
36186;DHT22;22228;53.222;7.446;2022-08-21T11:35:49;27.40;99.90
36186;DHT22;22228;53.222;7.446;2022-08-21T11:38:22;28.20;99.90
36186;DHT22;22228;53.222;7.446;2022-08-21T11:40:54;28.60;99.90
36186;DHT22;22228;53.222;7.446;2022-08-21T11:43:22;28.80;99.90
36186;DHT22;22228;53.222;7.446;2022-08-21T11:45:52;28.50;99.90
36186;DHT22;22228;53.222;7.446;2022-08-21T11:48:21;27.70;99.90
36186;DHT22;22228;53.222;7.446;2022-08-21T11:50:46;27.20;99.90
36186;DHT22;22228;53.222;7.446;2022-08-21T11:53:11;26.90;99.90
36186;DHT22;22228;53.222;7.446;2022-08-21T11:55:36;26.80;99.90
36186;DHT22;22228;53.222;7.446;2022-08-21T11:58:02;26.40;99.90
36186;DHT22;22228;53.222;7.446;2022-08-21T12:00:27;26.20;99.90
36186;DHT22;22228;53.222;7.446;2022-08-21T12:02:53;26.20;99.90
36186;DHT22;22228;53.222;7.446;2022-08-21T12:05:25;25.90;99.90
36186;DHT22;22228;53.222;7.446;2022-08-21T12:07:46;25.70;99.90
36186;DHT22;22228;53.222;7.446;2022-08-21T12:10:11;25.70;99.90
36186;DHT22;22228;53.222;7.446;2022-08-21T12:12:33;25.80;99.90
36186;DHT22;22228;53.222;7.446;2022-08-21T12:15:13;26.10;99.90
36186;DHT22;22228;53.222;7.446;2022-08-21T12:17:36;26.20;99.90
36186;DHT22;22228;53.222;7.446;2022-08-21T12:20:15;26.50;99.90
36186;DHT22;22228;53.222;7.446;2022-08-21T12:22:38;27.00;99.90
36186;DHT22;22228;53.222;7.446;2022-08-21T12:25:06;28.00;99.90
36186;DHT22;22228;53.222;7.446;2022-08-21T12:27:28;29.40;99.90
36186;DHT22;22228;53.222;7.446;2022-08-21T12:29:50;29.90;99.90
36186;DHT22;22228;53.222;7.446;2022-08-21T12:32:24;31.20;99.90
36186;DHT22;22228;53.222;7.446;2022-08-21T12:34:47;32.00;99.90
36186;DHT22;22228;53.222;7.446;2022-08-21T12:37:17;32.00;99.90
36186;DHT22;22228;53.222;7.446;2022-08-21T12:39:44;32.60;99.90
36186;DHT22;22228;53.222;7.446;2022-08-21T12:42:15;31.80;99.90
36186;DHT22;22228;53.222;7.446;2022-08-21T12:44:39;31.80;99.90
36186;DHT22;22228;53.222;7.446;2022-08-21T12:47:04;32.00;99.90
36186;DHT22;22228;53.222;7.446;2022-08-21T12:49:28;31.50;99.90
36186;DHT22;22228;53.222;7.446;2022-08-21T12:51:56;29.60;99.90
36186;DHT22;22228;53.222;7.446;2022-08-21T12:54:28;28.60;99.90
36186;DHT22;22228;53.222;7.446;2022-08-21T12:56:56;28.60;99.90
36186;DHT22;22228;53.222;7.446;2022-08-21T12:59:19;28.50;99.90
36186;DHT22;22228;53.222;7.446;2022-08-21T13:01:48;27.90;99.90
36186;DHT22;22228;53.222;7.446;2022-08-21T13:04:11;27.30;99.90
36186;DHT22;22228;53.222;7.446;2022-08-21T13:06:37;27.00;99.90
36186;DHT22;22228;53.222;7.446;2022-08-21T13:09:05;27.50;99.90
36186;DHT22;22228;53.222;7.446;2022-08-21T13:11:28;28.40;99.90
36186;DHT22;22228;53.222;7.446;2022-08-21T13:13:49;29.80;99.90
36186;DHT22;22228;53.222;7.446;2022-08-21T13:16:10;30.00;99.90
36186;DHT22;22228;53.222;7.446;2022-08-21T13:18:34;30.80;99.90
36186;DHT22;22228;53.222;7.446;2022-08-21T13:21:04;31.20;99.90
36186;DHT22;22228;53.222;7.446;2022-08-21T13:23:27;29.90;99.90
36186;DHT22;22228;53.222;7.446;2022-08-21T13:25:48;28.70;99.90
36186;DHT22;22228;53.222;7.446;2022-08-21T13:28:11;27.80;99.90
36186;DHT22;22228;53.222;7.446;2022-08-21T13:30:34;27.30;99.90
36186;DHT22;22228;53.222;7.446;2022-08-21T13:32:57;27.90;99.90
36186;DHT22;22228;53.222;7.446;2022-08-21T13:35:20;28.60;99.90
36186;DHT22;22228;53.222;7.446;2022-08-21T13:37:43;29.60;99.90
36186;DHT22;22228;53.222;7.446;2022-08-21T13:40:07;30.30;99.90
36186;DHT22;22228;53.222;7.446;2022-08-21T13:42:29;30.60;99.90
36186;DHT22;22228;53.222;7.446;2022-08-21T13:44:52;31.30;99.90
36186;DHT22;22228;53.222;7.446;2022-08-21T13:47:15;31.60;99.90
36186;DHT22;22228;53.222;7.446;2022-08-21T13:49:39;31.10;99.90
36186;DHT22;22228;53.222;7.446;2022-08-21T13:52:00;29.80;99.90
36186;DHT22;22228;53.222;7.446;2022-08-21T13:54:23;29.20;99.90
36186;DHT22;22228;53.222;7.446;2022-08-21T13:56:46;30.30;99.90
36186;DHT22;22228;53.222;7.446;2022-08-21T13:59:06;30.90;99.90
36186;DHT22;22228;53.222;7.446;2022-08-21T14:01:31;30.90;99.90
36186;DHT22;22228;53.222;7.446;2022-08-21T14:03:55;30.60;99.90
36186;DHT22;22228;53.222;7.446;2022-08-21T14:06:19;29.90;99.90
36186;DHT22;22228;53.222;7.446;2022-08-21T14:08:40;29.30;99.90
36186;DHT22;22228;53.222;7.446;2022-08-21T14:11:04;27.90;99.90
36186;DHT22;22228;53.222;7.446;2022-08-21T14:13:34;27.20;99.90
36186;DHT22;22228;53.222;7.446;2022-08-21T14:15:58;26.60;99.90
36186;DHT22;22228;53.222;7.446;2022-08-21T14:18:19;26.10;99.90
36186;DHT22;22228;53.222;7.446;2022-08-21T14:20:40;25.60;99.90
36186;DHT22;22228;53.222;7.446;2022-08-21T14:23:01;25.20;99.90
36186;DHT22;22228;53.222;7.446;2022-08-21T14:25:30;24.70;99.90
36186;DHT22;22228;53.222;7.446;2022-08-21T14:27:55;24.40;99.90
36186;DHT22;22228;53.222;7.446;2022-08-21T14:30:20;24.30;99.90
36186;DHT22;22228;53.222;7.446;2022-08-21T14:32:42;24.30;99.90
36186;DHT22;22228;53.222;7.446;2022-08-21T14:35:04;24.30;99.90
36186;DHT22;22228;53.222;7.446;2022-08-21T14:37:25;24.30;99.90
36186;DHT22;22228;53.222;7.446;2022-08-21T14:39:45;24.30;99.90
36186;DHT22;22228;53.222;7.446;2022-08-21T14:42:06;24.10;99.90
36186;DHT22;22228;53.222;7.446;2022-08-21T14:44:27;24.20;99.90
36186;DHT22;22228;53.222;7.446;2022-08-21T14:46:48;24.00;99.90
36186;DHT22;22228;53.222;7.446;2022-08-21T14:49:08;23.80;99.90
36186;DHT22;22228;53.222;7.446;2022-08-21T14:51:30;23.80;99.90
36186;DHT22;22228;53.222;7.446;2022-08-21T14:53:51;23.80;99.90
36186;DHT22;22228;53.222;7.446;2022-08-21T14:56:13;23.70;99.90
36186;DHT22;22228;53.222;7.446;2022-08-21T14:58:37;23.70;99.90
36186;DHT22;22228;53.222;7.446;2022-08-21T15:00:58;23.70;99.90
36186;DHT22;22228;53.222;7.446;2022-08-21T15:03:23;23.70;99.90
36186;DHT22;22228;53.222;7.446;2022-08-21T15:05:43;23.60;99.90